Airfield :
LOGIN :

Register | Disclaimer

   EN    FR    IT 

 










Legend :    VFR   Marginal VFR   IFR   Intensive IFR   Very Intensive IFR
Visi :
Ceiling :
>= 8 km
>= 3000ft
5 to 8 km
1000 to 3000 ft
1500m to 5 km
500 to 1000 ft
800 to 1500m
200 to 500 ft
< 800m
< 200 ft
Symbols :   Thunderstorms  Fog  Heavy snow  Heavy precipitations  Wind > 20 kt
SIGMETs :     Misc.  Thunderstorms  Icing  Turbulence  Mountain Waves  Volcanic Ashes






- Airport Elevation : 26 ft
- IATA code : GLA


EGPF - Glasgow

CURRENT METAR :
  • 041550Z AUTO 19013KT 9999 BKN030 10/04 Q1013

EXPIRED METARs :
  • 041520Z AUTO 20017KT 9999 BKN030 10/04 Q1013
  • 041450Z AUTO 20017KT 9999 BKN033 BKN049 11/04 Q1014
  • 041420Z AUTO 20015KT 9999 BKN035 BKN045 11/03 Q1014
  • 041350Z AUTO 21013KT 9999 FEW033 SCT045 11/04 Q1014
  • 041320Z AUTO 20011KT 9999 FEW034 11/05 Q1014

TAF TAF EGPF
Valid from the 04 at 12:00 until the 05 at 12:00 UTC


041055Z 0412/0512 20009KT 9999 FEW030
PROB40
TEMPO 0412/0418 21015G25KT
PROB30
TEMPO 0412/0419 8000 -RA BKN013
ATIS : +44 141 887 7449



MET'MAP, your aeronautical weather chart ! - Copyright ORBIFLY December 2007 - Disclaimer

ORBIFLY MET'MAP TEAM :

Programming & Development : Alexandra Zaïnal
Concept & original design : Baudouin d'Aumeries
Assistance for programming : Marc-Olivier Méhu
Technical & hardware support : Manuel Goepfert

Contact : metmap@orbifly.com




SOURCES & CREDITS :

   NOAA